Pagrindinis puslapis
METAR-TAF:

METAR-TAF

Oro uostai :

Stokholmas-Arlanda, Švedija

platuma: 59-39N, ilguma: 017-57E, Aukštis: 38 m

Dabartinis oras

Ataskaita buvo paskelbta 37 minutes, ne 21:50 UTC
Vėjas 6 kt iš Pietryčių
Temperatūra 13°C
Drėgmė 82%
Slėgis 1012 hPa
Matomumas 10 km arba daugiau
nėra debesų žemiau 1500 m ir nėra kamuolinių lietaus debesų

METAR: ESSA 162150Z 13006KT CAVOK 13/10 Q1012 NOSIG

Laikas: 00:27 (22:27 UTC)

Prognozė

Ataskaita buvo paskelbta 1 valandą ir 57 minutes, ne 20:30 UTC
Prognozė galioja nuo 16 metu 21 UTC su 17 metu 21 UTC
Vėjas 8 kt iš Pietų/Pietryčių
Matomumas 10 km arba daugiau
nėra debesų žemiau 1500 m ir nėra kamuolinių lietaus debesų
Tikimybė 40%
nuo 17 metu 01 UTC su 17 metu 05 UTC
Matomumas: 0300 m
ne aukštis 200 ft
rūkas
Tikimybė 40%
nuo 17 metu 19 UTC su 17 metu 21 UTC
Išsisklaidę debesys ne aukštis 4000 ft, Liūtiniai kamuoliniai debesys.

TAF: ESSA 162030Z 1621/1721 16008KT CAVOK PROB40 1701/1705 0300 FG VV002 PROB40 1719/1721 SCT040CB

Orai ataskaitas ir orų prognozės (METAR, TAF).

turimą stotys yra geltonos ir raudonos taškus žemėlapyje.

Perkelti pele per norėdami pamatyti stoties vardą.

Tada spustelėkite, norėdami matyti oro stebėjimo ir prognozės.

Norėdami pakeisti žemėlapį: spustelėkite ant žalios mygtukų su juodo kryžiaus žemyn,; žalią mygtuką su brūkšneliu, jei norite nutolinti; arba žalių rodyklių gretimoms žemėlapius.


METAR-TAF: